createdAt,value
2022-08-26T00:00:15.598Z,0.00
2022-08-26T00:01:14.046Z,0.00
2022-08-26T00:02:13.877Z,0.00
2022-08-26T00:03:13.799Z,0.00
2022-08-26T00:04:13.854Z,0.00
2022-08-26T00:05:13.224Z,0.00
2022-08-26T00:07:13.201Z,0.00
2022-08-26T00:08:13.221Z,0.00
2022-08-26T00:09:13.173Z,0.00
2022-08-26T00:12:13.178Z,0.00
2022-08-26T00:14:13.137Z,0.00
2022-08-26T00:15:13.154Z,0.00
2022-08-26T00:18:21.819Z,0.00
2022-08-26T00:19:14.224Z,0.00
2022-08-26T00:20:13.225Z,0.00
2022-08-26T00:21:13.243Z,0.00
2022-08-26T00:22:13.295Z,0.00
2022-08-26T00:23:14.375Z,0.00
2022-08-26T00:24:12.977Z,0.00
2022-08-26T00:25:13.003Z,0.00
2022-08-26T00:27:13.085Z,0.00
2022-08-26T00:28:13.125Z,0.00
2022-08-26T00:29:13.056Z,0.00
2022-08-26T00:31:12.985Z,0.00
2022-08-26T00:32:12.975Z,0.00
2022-08-26T00:33:12.975Z,0.00
2022-08-26T00:34:12.967Z,0.00
2022-08-26T00:35:12.847Z,0.00
2022-08-26T00:36:19.848Z,0.00
2022-08-26T00:37:16.289Z,0.00
2022-08-26T00:38:12.785Z,0.00
2022-08-26T00:39:12.793Z,0.00
2022-08-26T00:40:12.780Z,0.00
2022-08-26T00:41:12.737Z,0.00
2022-08-26T00:42:12.749Z,0.00
2022-08-26T00:43:12.737Z,0.00
2022-08-26T00:44:12.739Z,0.00
2022-08-26T00:45:12.759Z,0.00
2022-08-26T00:46:13.783Z,0.00
2022-08-26T00:47:12.752Z,0.00
2022-08-26T00:49:12.651Z,0.00
2022-08-26T00:50:12.678Z,0.00
2022-08-26T00:51:12.713Z,0.00
2022-08-26T00:52:13.635Z,0.00
2022-08-26T00:54:12.691Z,0.00
2022-08-26T00:55:12.581Z,0.00
2022-08-26T00:56:13.772Z,0.00
2022-08-26T00:57:16.396Z,0.00
2022-08-26T00:58:12.539Z,0.00
2022-08-26T00:59:12.543Z,0.00
2022-08-26T01:00:12.527Z,0.00
2022-08-26T01:01:12.580Z,0.00
2022-08-26T01:02:20.026Z,0.00
2022-08-26T01:03:13.499Z,0.00
2022-08-26T01:04:12.506Z,0.00
2022-08-26T01:05:12.511Z,0.00
2022-08-26T01:06:13.171Z,0.00
2022-08-26T01:07:12.583Z,0.00
2022-08-26T01:08:12.404Z,0.00
2022-08-26T01:09:12.398Z,0.00
2022-08-26T01:10:12.397Z,0.00
2022-08-26T01:11:12.382Z,0.00
2022-08-26T01:12:13.325Z,0.00
2022-08-26T01:13:12.415Z,0.00
2022-08-26T01:14:12.376Z,0.00
2022-08-26T01:15:12.367Z,0.00
2022-08-26T01:16:12.390Z,0.00
2022-08-26T01:17:12.275Z,0.00
2022-08-26T01:18:12.331Z,0.00
2022-08-26T01:20:12.634Z,0.00
2022-08-26T01:21:12.375Z,0.00
2022-08-26T01:23:12.344Z,0.00
2022-08-26T01:24:12.336Z,0.00
2022-08-26T01:25:12.390Z,0.00
2022-08-26T01:26:19.723Z,0.00
2022-08-26T01:27:13.388Z,0.00
2022-08-26T01:28:12.367Z,0.00
2022-08-26T01:29:12.390Z,0.00
2022-08-26T01:30:12.387Z,0.00
2022-08-26T01:31:12.462Z,0.00
2022-08-26T01:32:12.373Z,0.00
2022-08-26T01:33:12.340Z,0.00
2022-08-26T01:35:12.057Z,0.00
2022-08-26T01:36:12.053Z,0.00
2022-08-26T01:37:13.646Z,0.00
2022-08-26T01:38:12.109Z,0.00
2022-08-26T01:39:12.087Z,0.00
2022-08-26T01:40:12.160Z,0.00
2022-08-26T01:41:19.761Z,0.00
2022-08-26T01:42:13.089Z,0.00
2022-08-26T01:43:12.089Z,0.00
2022-08-26T01:44:12.123Z,0.00
2022-08-26T01:45:13.077Z,0.00
2022-08-26T01:46:12.179Z,0.00
2022-08-26T01:47:12.141Z,0.00
2022-08-26T01:48:12.180Z,0.00
2022-08-26T01:49:12.175Z,0.00
2022-08-26T01:50:12.189Z,0.00
2022-08-26T01:51:12.172Z,0.00
2022-08-26T01:52:12.166Z,0.00
2022-08-26T01:53:12.369Z,0.00
2022-08-26T01:54:13.845Z,0.00
2022-08-26T01:55:11.812Z,0.00
2022-08-26T01:56:11.773Z,0.00
2022-08-26T01:57:11.781Z,0.00
2022-08-26T01:59:12.263Z,0.00
2022-08-26T02:00:11.961Z,0.00
2022-08-26T02:01:11.760Z,0.00
2022-08-26T02:02:11.703Z,0.00
2022-08-26T02:03:11.701Z,0.00
2022-08-26T02:04:11.710Z,0.00
2022-08-26T02:05:11.664Z,0.00
2022-08-26T02:06:11.682Z,0.00
2022-08-26T02:07:11.641Z,0.00
2022-08-26T02:08:11.635Z,0.00
2022-08-26T02:09:12.622Z,0.00
2022-08-26T02:10:11.582Z,0.00
2022-08-26T02:11:11.568Z,0.00
2022-08-26T02:12:11.584Z,0.00
2022-08-26T02:13:11.585Z,0.00
2022-08-26T02:14:11.595Z,0.00
2022-08-26T02:15:11.637Z,0.00
2022-08-26T02:16:11.659Z,0.00
2022-08-26T02:17:11.630Z,0.00
2022-08-26T02:19:11.733Z,0.00
2022-08-26T02:20:13.083Z,0.00
2022-08-26T02:21:11.704Z,0.00
2022-08-26T02:22:11.726Z,0.00
2022-08-26T02:23:11.737Z,0.00
2022-08-26T02:24:11.438Z,0.00
2022-08-26T02:25:11.434Z,0.00
2022-08-26T02:26:11.430Z,0.00
2022-08-26T02:27:11.429Z,0.00
2022-08-26T02:28:11.473Z,0.00
2022-08-26T02:29:11.411Z,0.00
2022-08-26T02:30:11.426Z,0.00
2022-08-26T02:31:11.551Z,0.00
2022-08-26T02:32:11.970Z,0.00
2022-08-26T02:33:12.501Z,0.00
2022-08-26T02:34:11.484Z,0.00
2022-08-26T02:35:11.486Z,0.00
2022-08-26T02:36:12.141Z,0.00
2022-08-26T02:37:11.519Z,0.00
2022-08-26T02:38:12.539Z,0.00
2022-08-26T02:39:14.256Z,0.00
2022-08-26T02:40:11.579Z,0.00
2022-08-26T02:41:11.540Z,0.00
2022-08-26T02:42:11.570Z,0.00
2022-08-26T02:43:11.600Z,0.00
2022-08-26T02:44:11.662Z,0.00
2022-08-26T02:45:12.590Z,0.00
2022-08-26T02:46:11.712Z,0.00
2022-08-26T02:47:12.673Z,0.00
2022-08-26T02:48:11.657Z,0.00
2022-08-26T02:49:11.690Z,0.00
2022-08-26T02:50:11.713Z,0.00
2022-08-26T02:51:11.695Z,0.00
2022-08-26T02:52:11.712Z,0.00
2022-08-26T02:53:11.747Z,0.00
2022-08-26T02:54:11.050Z,0.00
2022-08-26T02:55:11.076Z,0.00
2022-08-26T02:56:11.005Z,0.00
2022-08-26T02:57:11.035Z,0.00
2022-08-26T02:58:10.993Z,0.00
2022-08-26T02:59:11.001Z,0.00
2022-08-26T03:00:11.007Z,0.00
2022-08-26T03:01:11.247Z,0.00
2022-08-26T03:02:11.052Z,0.00
2022-08-26T03:03:10.963Z,0.00
2022-08-26T03:04:10.956Z,0.00
2022-08-26T03:05:10.974Z,0.00
2022-08-26T03:06:10.976Z,0.00
2022-08-26T03:07:11.012Z,0.00
2022-08-26T03:08:10.986Z,0.00
2022-08-26T03:09:10.967Z,0.00
2022-08-26T03:10:11.973Z,0.00
2022-08-26T03:11:10.975Z,0.00
2022-08-26T03:12:10.995Z,0.00
2022-08-26T03:13:10.956Z,0.00
2022-08-26T03:14:10.800Z,0.00
2022-08-26T03:15:16.429Z,0.00
2022-08-26T03:16:11.881Z,0.00
2022-08-26T03:17:10.889Z,0.00
2022-08-26T03:18:10.899Z,0.00
2022-08-26T03:19:10.967Z,0.00
2022-08-26T03:20:10.663Z,0.00
2022-08-26T03:21:10.736Z,0.00
2022-08-26T03:22:10.728Z,0.00
2022-08-26T03:23:10.803Z,0.00
2022-08-26T03:24:10.740Z,0.00
2022-08-26T03:25:10.778Z,0.00
2022-08-26T03:26:10.948Z,0.00
2022-08-26T03:27:10.810Z,0.00
2022-08-26T03:28:10.579Z,0.00
2022-08-26T03:29:10.595Z,0.00
2022-08-26T03:30:11.883Z,0.00
2022-08-26T03:31:10.665Z,0.00
2022-08-26T03:32:10.683Z,0.00
2022-08-26T03:34:11.342Z,0.00
2022-08-26T03:35:10.578Z,0.00
2022-08-26T03:36:10.489Z,0.00
2022-08-26T03:38:10.490Z,0.00
2022-08-26T03:40:10.620Z,0.00
2022-08-26T03:41:10.483Z,0.00
2022-08-26T03:43:10.720Z,0.00
2022-08-26T03:44:10.605Z,0.00
2022-08-26T03:45:11.573Z,0.00
2022-08-26T03:46:10.729Z,0.00
2022-08-26T03:47:10.668Z,0.00
2022-08-26T03:48:10.691Z,0.02
2022-08-26T03:49:10.712Z,0.02
2022-08-26T03:50:10.749Z,0.02
2022-08-26T03:51:10.795Z,0.00
2022-08-26T03:52:13.274Z,0.00
2022-08-26T03:53:13.281Z,0.00
2022-08-26T03:54:10.877Z,0.01
2022-08-26T03:55:10.893Z,0.01
2022-08-26T03:56:10.956Z,0.10
2022-08-26T03:57:10.965Z,0.02
2022-08-26T03:58:12.050Z,0.02
2022-08-26T03:59:11.005Z,0.12
2022-08-26T04:00:11.047Z,0.03
2022-08-26T04:01:10.037Z,0.10
2022-08-26T04:02:11.553Z,0.04
2022-08-26T04:03:10.545Z,0.05
2022-08-26T04:04:10.175Z,0.18
2022-08-26T04:05:11.224Z,0.06
2022-08-26T04:06:10.275Z,0.08
2022-08-26T04:07:10.290Z,0.09
2022-08-26T04:08:10.300Z,0.11
2022-08-26T04:09:10.359Z,0.13
2022-08-26T04:10:10.380Z,0.15
2022-08-26T04:11:10.403Z,0.18
2022-08-26T04:12:10.431Z,0.21
2022-08-26T04:13:18.916Z,0.23
2022-08-26T04:14:10.476Z,0.27
2022-08-26T04:15:11.484Z,0.31
2022-08-26T04:16:10.574Z,0.34
2022-08-26T04:17:10.599Z,0.42
2022-08-26T04:18:10.562Z,0.49
2022-08-26T04:19:10.611Z,0.55
2022-08-26T04:20:10.618Z,0.62
2022-08-26T04:21:10.655Z,0.73
2022-08-26T04:22:10.643Z,0.82
2022-08-26T04:23:10.645Z,0.90
2022-08-26T04:24:11.882Z,1.02
2022-08-26T04:25:10.659Z,1.07
2022-08-26T04:26:10.971Z,1.21
2022-08-26T04:27:10.631Z,1.32
2022-08-26T04:28:10.642Z,1.46
2022-08-26T04:29:15.874Z,1.67
2022-08-26T04:30:09.675Z,1.79
2022-08-26T04:31:09.715Z,2.14
2022-08-26T04:32:09.693Z,2.24
2022-08-26T04:33:13.270Z,2.74
2022-08-26T04:34:11.021Z,2.71
2022-08-26T04:35:09.788Z,2.66
2022-08-26T04:36:09.786Z,2.95
2022-08-26T04:37:09.823Z,3.10
2022-08-26T04:38:09.853Z,3.34
2022-08-26T04:39:09.872Z,3.63
2022-08-26T04:40:09.967Z,3.98
2022-08-26T04:41:10.658Z,4.31
2022-08-26T04:42:10.935Z,5.33
2022-08-26T04:43:09.975Z,7.01
2022-08-26T04:44:10.002Z,8.30
2022-08-26T04:45:14.137Z,9.75
2022-08-26T04:46:10.095Z,11.17
2022-08-26T04:47:10.115Z,11.93
2022-08-26T04:48:11.156Z,12.20
2022-08-26T04:49:10.204Z,12.26
2022-08-26T04:50:10.931Z,12.45
2022-08-26T04:51:10.296Z,12.71
2022-08-26T04:52:10.317Z,13.50
2022-08-26T04:53:10.498Z,14.50
2022-08-26T04:54:09.321Z,16.14
2022-08-26T04:55:09.356Z,16.87
2022-08-26T04:56:09.384Z,17.79
2022-08-26T04:57:09.459Z,17.01
2022-08-26T04:58:10.351Z,15.57
2022-08-26T04:59:16.683Z,14.21
2022-08-26T05:00:10.496Z,13.89
2022-08-26T05:01:09.557Z,14.61
2022-08-26T05:02:09.685Z,15.60
2022-08-26T05:03:10.542Z,14.76
2022-08-26T05:04:09.818Z,15.33
2022-08-26T05:05:09.813Z,16.80
2022-08-26T05:06:09.856Z,18.68
2022-08-26T05:07:13.347Z,18.67
2022-08-26T05:08:09.988Z,18.85
2022-08-26T05:09:10.029Z,18.94
2022-08-26T05:10:10.118Z,19.34
2022-08-26T05:11:09.433Z,20.42
2022-08-26T05:12:09.177Z,20.94
2022-08-26T05:13:10.657Z,21.11
2022-08-26T05:14:09.234Z,22.86
2022-08-26T05:15:09.291Z,24.75
2022-08-26T05:16:09.385Z,25.45
2022-08-26T05:17:09.429Z,24.25
2022-08-26T05:18:14.211Z,24.80
2022-08-26T05:19:11.594Z,26.92
2022-08-26T05:20:09.541Z,27.08
2022-08-26T05:21:10.613Z,26.89
2022-08-26T05:22:09.609Z,26.59
2022-08-26T05:23:09.896Z,27.27
2022-08-26T05:24:09.854Z,28.96
2022-08-26T05:25:09.708Z,29.83
2022-08-26T05:26:09.775Z,31.14
2022-08-26T05:27:11.781Z,31.55
2022-08-26T05:28:09.771Z,33.58
2022-08-26T05:29:09.803Z,35.21
2022-08-26T05:30:09.834Z,35.51
2022-08-26T05:31:09.891Z,36.16
2022-08-26T05:32:08.848Z,37.15
2022-08-26T05:33:10.025Z,38.37
2022-08-26T05:34:08.852Z,39.55
2022-08-26T05:35:09.913Z,41.33
2022-08-26T05:36:08.898Z,43.99
2022-08-26T05:37:09.955Z,44.02
2022-08-26T05:38:12.397Z,43.84
2022-08-26T05:39:10.676Z,44.51
2022-08-26T05:40:09.026Z,47.42
2022-08-26T05:41:09.051Z,50.84
2022-08-26T05:42:09.062Z,52.01
2022-08-26T05:43:09.277Z,51.80
2022-08-26T05:44:09.105Z,52.46
2022-08-26T05:45:09.151Z,53.14
2022-08-26T05:46:09.248Z,52.35
2022-08-26T05:47:09.234Z,52.18
2022-08-26T05:48:09.276Z,54.84
2022-08-26T05:49:12.572Z,59.32
2022-08-26T05:50:10.353Z,61.46
2022-08-26T05:51:09.379Z,61.61
2022-08-26T05:52:09.373Z,62.06
2022-08-26T05:53:09.714Z,64.79
2022-08-26T05:54:10.681Z,66.15
2022-08-26T05:55:09.488Z,66.46
2022-08-26T05:56:09.486Z,68.96
2022-08-26T05:57:09.498Z,71.37
2022-08-26T05:58:09.494Z,72.86
2022-08-26T05:59:14.196Z,74.31
2022-08-26T06:00:09.549Z,78.64
2022-08-26T06:01:09.587Z,81.73
2022-08-26T06:02:09.640Z,82.51
2022-08-26T06:03:09.946Z,86.80
2022-08-26T06:04:08.647Z,87.49
2022-08-26T06:05:08.697Z,87.33
2022-08-26T06:06:09.794Z,88.28
2022-08-26T06:07:11.555Z,91.12
2022-08-26T06:08:08.810Z,95.03
2022-08-26T06:09:11.243Z,99.28
2022-08-26T06:10:33.667Z,103.59
2022-08-26T06:11:12.712Z,103.95
2022-08-26T06:12:09.987Z,101.06
2022-08-26T06:13:11.751Z,103.63
2022-08-26T06:14:09.118Z,106.27
2022-08-26T06:15:09.049Z,107.47
2022-08-26T06:16:09.139Z,110.33
2022-08-26T06:17:09.526Z,113.68
2022-08-26T06:18:10.309Z,117.33
2022-08-26T06:19:10.599Z,116.80
2022-08-26T06:20:11.323Z,119.40
2022-08-26T06:21:09.280Z,123.78
2022-08-26T06:22:09.245Z,122.01
2022-08-26T06:23:09.492Z,125.42
2022-08-26T06:24:08.239Z,128.31
2022-08-26T06:25:09.272Z,132.22
2022-08-26T06:26:08.274Z,134.56
2022-08-26T06:27:11.342Z,134.73
2022-08-26T06:28:10.384Z,136.52
2022-08-26T06:29:09.416Z,138.69
2022-08-26T06:30:11.537Z,143.24
2022-08-26T06:31:08.533Z,152.93
2022-08-26T06:32:09.569Z,160.69
2022-08-26T06:33:09.749Z,160.36
2022-08-26T06:34:10.859Z,160.25
2022-08-26T06:35:11.952Z,165.71
2022-08-26T06:36:09.685Z,170.42
2022-08-26T06:37:08.678Z,174.64
2022-08-26T06:38:09.745Z,177.62
2022-08-26T06:39:08.806Z,179.42
2022-08-26T06:40:08.858Z,185.36
2022-08-26T06:41:08.794Z,187.27
2022-08-26T06:42:11.796Z,184.53
2022-08-26T06:43:09.088Z,180.69
2022-08-26T06:44:08.894Z,178.66
2022-08-26T06:45:12.020Z,178.48
2022-08-26T06:46:07.930Z,178.33
2022-08-26T06:47:08.986Z,180.14
2022-08-26T06:48:11.081Z,185.45
2022-08-26T06:49:09.063Z,190.48
2022-08-26T06:50:11.187Z,189.60
2022-08-26T06:51:10.075Z,190.78
2022-08-26T06:52:09.131Z,192.35
2022-08-26T06:53:08.305Z,194.43
2022-08-26T06:54:09.224Z,198.64
2022-08-26T06:55:10.221Z,201.34
2022-08-26T06:56:09.329Z,201.91
2022-08-26T06:57:08.296Z,198.99
2022-08-26T06:58:09.381Z,194.80
2022-08-26T06:59:11.563Z,193.80
2022-08-26T07:00:08.379Z,192.61
2022-08-26T07:01:11.619Z,194.22
2022-08-26T07:02:08.487Z,195.26
2022-08-26T07:03:09.732Z,194.03
2022-08-26T07:04:10.548Z,195.27
2022-08-26T07:05:09.560Z,195.52
2022-08-26T07:06:08.518Z,198.17
2022-08-26T07:07:09.700Z,200.13
2022-08-26T07:08:10.685Z,203.66
2022-08-26T07:09:09.959Z,204.05
2022-08-26T07:10:09.691Z,204.15
2022-08-26T07:11:08.680Z,208.65
2022-08-26T07:12:08.712Z,212.63
2022-08-26T07:13:09.805Z,212.80
2022-08-26T07:14:07.943Z,211.54
2022-08-26T07:15:08.842Z,205.43
2022-08-26T07:16:09.140Z,202.53
2022-08-26T07:17:13.720Z,205.65
2022-08-26T07:18:08.883Z,211.63
2022-08-26T07:19:11.206Z,216.12
2022-08-26T07:20:07.925Z,212.10
2022-08-26T07:21:08.971Z,204.58
2022-08-26T07:22:09.191Z,198.73
2022-08-26T07:23:10.089Z,197.86
2022-08-26T07:24:09.064Z,201.73
2022-08-26T07:25:08.044Z,207.62
2022-08-26T07:26:08.062Z,213.52
2022-08-26T07:27:09.124Z,218.52
2022-08-26T07:28:09.131Z,222.22
2022-08-26T07:29:09.133Z,224.35
2022-08-26T07:30:08.131Z,226.30
2022-08-26T07:31:09.638Z,229.01
2022-08-26T07:32:09.249Z,231.89
2022-08-26T07:33:08.452Z,236.82
2022-08-26T07:34:08.258Z,245.47
2022-08-26T07:35:08.258Z,258.07
2022-08-26T07:36:08.286Z,266.33
2022-08-26T07:37:09.339Z,269.37
2022-08-26T07:38:11.495Z,273.43
2022-08-26T07:39:10.459Z,271.30
2022-08-26T07:40:10.522Z,263.47
2022-08-26T07:41:07.415Z,259.31
2022-08-26T07:42:08.638Z,258.46
2022-08-26T07:43:09.842Z,255.73
2022-08-26T07:44:08.564Z,249.44
2022-08-26T07:45:09.630Z,253.04
2022-08-26T07:46:15.895Z,260.55
2022-08-26T07:47:10.436Z,262.38
2022-08-26T07:48:09.683Z,261.07
2022-08-26T07:49:08.742Z,257.83
2022-08-26T07:50:08.728Z,253.71
2022-08-26T07:51:08.810Z,252.35
2022-08-26T07:52:09.728Z,248.15
2022-08-26T07:53:10.834Z,240.91
2022-08-26T07:54:08.859Z,240.43
2022-08-26T07:55:09.968Z,243.87
2022-08-26T07:56:08.950Z,249.68
2022-08-26T07:57:10.006Z,251.78
2022-08-26T07:58:07.973Z,249.05
2022-08-26T07:59:08.646Z,244.41
2022-08-26T08:00:07.991Z,238.49
2022-08-26T08:01:09.143Z,238.00
2022-08-26T08:02:09.148Z,242.68
2022-08-26T08:03:09.423Z,249.50
2022-08-26T08:04:09.231Z,253.45
2022-08-26T08:05:08.336Z,259.49
2022-08-26T08:06:08.276Z,268.28
2022-08-26T08:07:11.558Z,275.67
2022-08-26T08:08:26.875Z,280.75
2022-08-26T08:09:08.327Z,281.05
2022-08-26T08:10:11.583Z,270.39
2022-08-26T08:11:11.467Z,264.07
2022-08-26T08:12:08.455Z,265.58
2022-08-26T08:13:08.688Z,272.90
2022-08-26T08:14:11.881Z,282.41
2022-08-26T08:15:08.520Z,294.77
2022-08-26T08:16:13.723Z,311.05
2022-08-26T08:18:14.047Z,335.42
2022-08-26T08:19:08.583Z,336.89
2022-08-26T08:20:08.677Z,329.62
2022-08-26T08:21:21.769Z,319.07
2022-08-26T08:22:17.407Z,311.77
2022-08-26T08:23:09.841Z,312.90
2022-08-26T08:24:08.785Z,318.13
2022-08-26T08:25:10.483Z,321.08
2022-08-26T08:26:08.810Z,318.52
2022-08-26T08:27:10.907Z,319.23
2022-08-26T08:28:10.180Z,320.40
2022-08-26T08:29:08.908Z,318.91
2022-08-26T08:30:08.907Z,314.61
2022-08-26T08:31:09.049Z,314.44
2022-08-26T08:32:10.015Z,319.55
2022-08-26T08:33:12.147Z,327.61
2022-08-26T08:34:09.075Z,340.26
2022-08-26T08:35:11.033Z,368.40
2022-08-26T08:36:09.380Z,374.61
2022-08-26T08:37:10.909Z,369.59
2022-08-26T08:38:09.328Z,359.29
2022-08-26T08:39:09.263Z,342.49
2022-08-26T08:40:10.342Z,340.81
2022-08-26T08:41:09.279Z,333.84
2022-08-26T08:42:10.374Z,329.11
2022-08-26T08:43:09.586Z,333.06
2022-08-26T08:44:08.331Z,342.36
2022-08-26T08:45:08.371Z,364.09
2022-08-26T08:46:08.391Z,370.05
2022-08-26T08:47:09.433Z,374.22
2022-08-26T08:48:08.562Z,380.85
2022-08-26T08:49:08.489Z,386.95
2022-08-26T08:50:09.663Z,381.17
2022-08-26T08:51:08.613Z,368.65
2022-08-26T08:52:10.555Z,362.79
2022-08-26T08:53:09.034Z,339.60
2022-08-26T08:54:08.591Z,329.20
2022-08-26T08:55:11.034Z,323.76
2022-08-26T08:56:09.783Z,323.34
2022-08-26T08:57:09.663Z,321.21
2022-08-26T08:58:08.795Z,321.33
2022-08-26T08:59:08.660Z,330.21
2022-08-26T09:00:07.663Z,340.21
2022-08-26T09:01:09.765Z,360.65
2022-08-26T09:02:07.728Z,349.02
2022-08-26T09:03:08.682Z,364.73
2022-08-26T09:04:07.724Z,353.08
2022-08-26T09:05:08.713Z,372.28
2022-08-26T09:06:07.668Z,378.79
2022-08-26T09:07:08.961Z,382.98
2022-08-26T09:08:11.278Z,386.70
2022-08-26T09:09:07.748Z,394.18
2022-08-26T09:10:09.832Z,404.28
2022-08-26T09:11:09.894Z,410.37
2022-08-26T09:12:08.864Z,410.89
2022-08-26T09:13:09.968Z,407.91
2022-08-26T09:14:07.876Z,410.74
2022-08-26T09:15:09.007Z,414.42
2022-08-26T09:16:10.315Z,411.47
2022-08-26T09:17:09.092Z,405.28
2022-08-26T09:18:10.885Z,390.03
2022-08-26T09:19:08.085Z,373.56
2022-08-26T09:20:11.185Z,365.10
2022-08-26T09:21:09.145Z,362.74
2022-08-26T09:22:09.573Z,366.68
2022-08-26T09:23:11.107Z,379.02
2022-08-26T09:24:11.081Z,392.65
2022-08-26T09:25:08.276Z,405.53
2022-08-26T09:26:08.270Z,412.98
2022-08-26T09:27:08.265Z,409.44
2022-08-26T09:28:08.394Z,400.91
2022-08-26T09:29:09.403Z,398.31
2022-08-26T09:30:06.246Z,406.30
2022-08-26T09:31:10.672Z,421.84
2022-08-26T09:32:07.288Z,431.10
2022-08-26T09:33:10.022Z,425.04
2022-08-26T09:34:06.301Z,410.99
2022-08-26T09:35:07.208Z,392.61
2022-08-26T09:36:06.312Z,374.86
2022-08-26T09:37:06.327Z,363.75
2022-08-26T09:38:09.311Z,359.85
2022-08-26T09:39:07.347Z,361.60
2022-08-26T09:40:06.386Z,370.08
2022-08-26T09:41:06.400Z,385.14
2022-08-26T09:42:06.404Z,400.55
2022-08-26T09:43:06.386Z,412.06
2022-08-26T09:44:06.369Z,416.74
2022-08-26T09:45:06.406Z,414.18
2022-08-26T09:46:07.360Z,400.73
2022-08-26T09:47:07.681Z,379.44
2022-08-26T09:48:06.493Z,345.23
2022-08-26T09:49:06.382Z,333.14
2022-08-26T09:50:09.935Z,330.55
2022-08-26T09:51:07.379Z,336.40
2022-08-26T09:52:06.405Z,342.07
2022-08-26T09:53:12.814Z,344.18
2022-08-26T09:54:08.222Z,343.92
2022-08-26T09:55:05.379Z,342.32
2022-08-26T09:56:05.416Z,345.77
2022-08-26T09:57:05.404Z,356.59
2022-08-26T09:58:08.705Z,385.38
2022-08-26T09:59:07.189Z,386.11
2022-08-26T10:00:05.488Z,368.61
2022-08-26T10:01:05.522Z,342.90
2022-08-26T10:02:05.482Z,360.48
2022-08-26T10:03:06.520Z,361.96
2022-08-26T10:04:05.596Z,340.11
2022-08-26T10:05:09.115Z,324.28
2022-08-26T10:06:05.522Z,315.88
2022-08-26T10:07:05.535Z,317.41
2022-08-26T10:08:05.564Z,323.90
2022-08-26T10:09:08.861Z,341.56
2022-08-26T10:10:05.565Z,377.74
2022-08-26T10:11:06.197Z,388.19
2022-08-26T10:12:05.608Z,384.34
2022-08-26T10:13:05.671Z,370.08
2022-08-26T10:14:05.616Z,334.50
2022-08-26T10:15:05.639Z,311.18
2022-08-26T10:16:06.609Z,288.04
2022-08-26T10:17:07.039Z,275.37
2022-08-26T10:18:05.694Z,279.96
2022-08-26T10:19:05.777Z,290.93
2022-08-26T10:20:05.687Z,301.67
2022-08-26T10:21:07.339Z,311.81
2022-08-26T10:22:05.708Z,324.00
2022-08-26T10:23:06.424Z,333.18
2022-08-26T10:24:05.766Z,341.60
2022-08-26T10:25:05.812Z,365.19
2022-08-26T10:26:05.757Z,374.80
2022-08-26T10:27:05.767Z,379.66
2022-08-26T10:28:05.940Z,370.39
2022-08-26T10:29:07.232Z,363.19
2022-08-26T10:30:05.784Z,338.01
2022-08-26T10:31:05.823Z,319.44
2022-08-26T10:32:05.893Z,309.40
2022-08-26T10:33:05.936Z,309.09
2022-08-26T10:34:04.882Z,316.20
2022-08-26T10:35:06.744Z,332.41
2022-08-26T10:36:04.888Z,346.45
2022-08-26T10:37:15.713Z,354.09
2022-08-26T10:38:06.006Z,369.11
2022-08-26T10:39:05.015Z,344.78
2022-08-26T10:40:05.011Z,338.15
2022-08-26T10:41:09.804Z,336.21
2022-08-26T10:42:05.061Z,335.65
2022-08-26T10:43:11.082Z,339.85
2022-08-26T10:44:06.022Z,365.14
2022-08-26T10:45:05.045Z,373.66
2022-08-26T10:46:05.111Z,374.05
2022-08-26T10:47:06.751Z,377.51
2022-08-26T10:48:05.266Z,388.31
2022-08-26T10:49:06.659Z,382.42
2022-08-26T10:50:05.074Z,373.54
2022-08-26T10:51:05.606Z,341.95
2022-08-26T10:52:15.153Z,314.59
2022-08-26T10:53:07.703Z,302.54
2022-08-26T10:54:05.073Z,302.57
2022-08-26T10:55:05.101Z,306.50
2022-08-26T10:56:05.109Z,320.62
2022-08-26T10:57:05.154Z,336.35
2022-08-26T10:58:08.087Z,350.39
2022-08-26T10:59:10.383Z,359.43
2022-08-26T11:00:05.257Z,435.22
2022-08-26T11:01:10.491Z,443.07
2022-08-26T11:02:06.285Z,435.94
2022-08-26T11:03:05.353Z,440.15
2022-08-26T11:04:06.015Z,458.28
2022-08-26T11:05:06.287Z,479.14
2022-08-26T11:06:05.325Z,487.42
2022-08-26T11:07:05.375Z,496.75
2022-08-26T11:08:05.409Z,504.24
2022-08-26T11:09:05.371Z,508.75
2022-08-26T11:10:05.918Z,513.32
2022-08-26T11:11:06.364Z,525.42
2022-08-26T11:12:10.182Z,524.41
2022-08-26T11:13:05.474Z,506.41
2022-08-26T11:14:04.418Z,489.81
2022-08-26T11:15:05.191Z,469.58
2022-08-26T11:16:04.490Z,457.93
2022-08-26T11:17:06.769Z,461.69
2022-08-26T11:18:04.440Z,460.49
2022-08-26T11:19:04.439Z,455.69
2022-08-26T11:20:08.949Z,439.70
2022-08-26T11:21:05.488Z,404.59
2022-08-26T11:22:04.509Z,368.08
2022-08-26T11:23:08.295Z,337.47
2022-08-26T11:24:04.559Z,338.20
2022-08-26T11:25:04.584Z,358.25
2022-08-26T11:26:04.559Z,363.75
2022-08-26T11:27:04.585Z,370.18
2022-08-26T11:28:04.641Z,374.02
2022-08-26T11:29:12.004Z,369.31
2022-08-26T11:30:05.639Z,370.49
2022-08-26T11:31:04.721Z,393.51
2022-08-26T11:32:04.706Z,418.11
2022-08-26T11:33:04.804Z,429.04
2022-08-26T11:34:04.713Z,438.03
2022-08-26T11:35:07.620Z,428.27
2022-08-26T11:36:07.473Z,435.93
2022-08-26T11:37:05.863Z,433.51
2022-08-26T11:38:04.879Z,431.05
2022-08-26T11:39:04.872Z,419.95
2022-08-26T11:40:04.969Z,420.08
2022-08-26T11:41:05.826Z,438.49
2022-08-26T11:42:04.914Z,468.73
2022-08-26T11:43:04.922Z,485.18
2022-08-26T11:44:04.973Z,493.58
2022-08-26T11:45:05.682Z,505.45
2022-08-26T11:46:04.081Z,526.29
2022-08-26T11:47:07.745Z,540.40
2022-08-26T11:48:04.018Z,542.98
2022-08-26T11:49:04.076Z,554.28
2022-08-26T11:50:04.046Z,560.54
2022-08-26T11:51:04.081Z,570.10
2022-08-26T11:52:04.129Z,593.30
2022-08-26T11:53:04.164Z,604.13
2022-08-26T11:54:04.135Z,620.91
2022-08-26T11:55:04.285Z,633.08
2022-08-26T11:56:04.186Z,642.97
2022-08-26T11:57:09.537Z,626.84
2022-08-26T11:58:06.829Z,593.40
2022-08-26T11:59:04.241Z,565.92
2022-08-26T12:00:05.138Z,554.57
2022-08-26T12:01:04.246Z,571.76
2022-08-26T12:02:06.312Z,589.52
2022-08-26T12:03:05.330Z,590.69
2022-08-26T12:04:04.475Z,580.20
2022-08-26T12:05:04.320Z,565.25
2022-08-26T12:06:04.357Z,542.81
2022-08-26T12:07:04.378Z,521.43
2022-08-26T12:08:04.441Z,515.14
2022-08-26T12:09:06.279Z,518.90
2022-08-26T12:10:04.503Z,532.46
2022-08-26T12:11:04.557Z,533.36
2022-08-26T12:12:04.570Z,525.11
2022-08-26T12:13:04.598Z,533.80
2022-08-26T12:14:03.571Z,558.00
2022-08-26T12:15:03.846Z,584.14
2022-08-26T12:16:03.695Z,619.73
2022-08-26T12:17:03.654Z,653.52
2022-08-26T12:18:04.774Z,669.72
2022-08-26T12:19:03.731Z,689.87
2022-08-26T12:20:03.752Z,701.43
2022-08-26T12:21:03.795Z,702.77
2022-08-26T12:22:03.790Z,724.57
2022-08-26T12:23:03.815Z,801.75
2022-08-26T12:24:03.821Z,853.79
2022-08-26T12:25:03.854Z,940.47
2022-08-26T12:26:03.924Z,964.75
2022-08-26T12:27:03.923Z,867.33
2022-08-26T12:28:03.948Z,894.41
2022-08-26T12:29:12.704Z,829.82
2022-08-26T12:30:04.936Z,666.73
2022-08-26T12:31:03.973Z,583.51
2022-08-26T12:32:04.013Z,545.18
2022-08-26T12:33:05.386Z,529.43
2022-08-26T12:34:04.978Z,503.35
2022-08-26T12:36:04.013Z,445.11
2022-08-26T12:37:04.010Z,443.01
2022-08-26T12:38:04.085Z,448.55
2022-08-26T12:39:04.018Z,449.05
2022-08-26T12:40:04.123Z,441.73
2022-08-26T12:41:04.103Z,429.38
2022-08-26T12:42:04.128Z,419.85
2022-08-26T12:43:04.143Z,419.66
2022-08-26T12:44:04.293Z,419.79
2022-08-26T12:45:03.136Z,425.04
2022-08-26T12:46:03.205Z,430.58
2022-08-26T12:47:03.222Z,430.04
2022-08-26T12:48:03.277Z,435.08
2022-08-26T12:49:03.272Z,426.86
2022-08-26T12:50:03.257Z,396.28
2022-08-26T12:51:03.273Z,381.51
2022-08-26T12:52:03.349Z,381.60
2022-08-26T12:53:03.348Z,394.15
2022-08-26T12:54:03.387Z,411.30
2022-08-26T12:55:03.407Z,431.13
2022-08-26T12:56:03.580Z,457.10
2022-08-26T12:57:03.521Z,479.63
2022-08-26T12:58:03.584Z,489.36
2022-08-26T12:59:03.591Z,499.06
2022-08-26T13:00:03.573Z,512.81
2022-08-26T13:01:03.769Z,543.45
2022-08-26T13:02:04.570Z,541.37
2022-08-26T13:03:03.659Z,522.19
2022-08-26T13:04:03.717Z,503.81
2022-08-26T13:05:03.739Z,494.80
2022-08-26T13:06:03.735Z,467.94
2022-08-26T13:07:03.790Z,438.62
2022-08-26T13:08:03.798Z,414.82